sensor_id;sensor_type;location;lat;lon;timestamp;P1;durP1;ratioP1;P2;durP2;ratioP2
34497;SDS011;20744;50.938;7.286;2023-08-08T00:01:58;7.85;;;1.65;;
34497;SDS011;20744;50.938;7.286;2023-08-08T00:04:29;5.03;;;2.05;;
34497;SDS011;20744;50.938;7.286;2023-08-08T00:06:56;9.13;;;2.05;;
34497;SDS011;20744;50.938;7.286;2023-08-08T00:09:24;8.00;;;2.25;;
34497;SDS011;20744;50.938;7.286;2023-08-08T00:11:51;7.90;;;1.95;;
34497;SDS011;20744;50.938;7.286;2023-08-08T00:14:20;4.65;;;1.58;;
34497;SDS011;20744;50.938;7.286;2023-08-08T00:16:47;6.03;;;1.95;;
34497;SDS011;20744;50.938;7.286;2023-08-08T00:19:14;5.20;;;1.70;;
34497;SDS011;20744;50.938;7.286;2023-08-08T00:21:42;4.38;;;2.10;;
34497;SDS011;20744;50.938;7.286;2023-08-08T00:24:09;4.80;;;1.80;;
34497;SDS011;20744;50.938;7.286;2023-08-08T00:26:36;7.05;;;2.00;;
34497;SDS011;20744;50.938;7.286;2023-08-08T00:29:04;4.78;;;2.20;;
34497;SDS011;20744;50.938;7.286;2023-08-08T00:31:33;8.23;;;2.60;;
34497;SDS011;20744;50.938;7.286;2023-08-08T00:34:00;5.70;;;2.20;;
34497;SDS011;20744;50.938;7.286;2023-08-08T00:36:27;7.60;;;2.10;;
34497;SDS011;20744;50.938;7.286;2023-08-08T00:38:57;6.72;;;2.10;;
34497;SDS011;20744;50.938;7.286;2023-08-08T00:41:25;6.90;;;2.10;;
34497;SDS011;20744;50.938;7.286;2023-08-08T00:43:52;5.20;;;2.10;;
34497;SDS011;20744;50.938;7.286;2023-08-08T00:46:20;7.00;;;2.25;;
34497;SDS011;20744;50.938;7.286;2023-08-08T00:48:50;5.07;;;2.10;;
34497;SDS011;20744;50.938;7.286;2023-08-08T00:51:20;5.40;;;2.08;;
34497;SDS011;20744;50.938;7.286;2023-08-08T00:53:48;6.35;;;2.28;;
34497;SDS011;20744;50.938;7.286;2023-08-08T00:56:16;6.32;;;2.10;;
34497;SDS011;20744;50.938;7.286;2023-08-08T00:58:44;10.85;;;2.40;;
34497;SDS011;20744;50.938;7.286;2023-08-08T01:01:12;3.33;;;1.98;;
34497;SDS011;20744;50.938;7.286;2023-08-08T01:03:39;7.70;;;1.80;;
34497;SDS011;20744;50.938;7.286;2023-08-08T01:06:08;5.55;;;2.15;;
34497;SDS011;20744;50.938;7.286;2023-08-08T01:08:39;5.68;;;2.10;;
34497;SDS011;20744;50.938;7.286;2023-08-08T01:11:11;4.20;;;2.13;;
34497;SDS011;20744;50.938;7.286;2023-08-08T01:13:41;3.05;;;1.75;;
34497;SDS011;20744;50.938;7.286;2023-08-08T01:16:11;3.97;;;2.03;;
34497;SDS011;20744;50.938;7.286;2023-08-08T01:18:39;6.32;;;1.90;;
34497;SDS011;20744;50.938;7.286;2023-08-08T01:21:09;6.68;;;2.08;;
34497;SDS011;20744;50.938;7.286;2023-08-08T01:23:41;3.25;;;1.70;;
34497;SDS011;20744;50.938;7.286;2023-08-08T01:26:10;3.22;;;1.63;;
34497;SDS011;20744;50.938;7.286;2023-08-08T01:28:41;6.07;;;2.03;;
34497;SDS011;20744;50.938;7.286;2023-08-08T01:31:09;7.55;;;2.22;;
34497;SDS011;20744;50.938;7.286;2023-08-08T01:33:37;7.75;;;1.98;;
34497;SDS011;20744;50.938;7.286;2023-08-08T01:36:06;4.43;;;1.90;;
34497;SDS011;20744;50.938;7.286;2023-08-08T01:38:36;14.77;;;2.22;;
34497;SDS011;20744;50.938;7.286;2023-08-08T01:41:04;9.63;;;2.17;;
34497;SDS011;20744;50.938;7.286;2023-08-08T01:43:33;5.30;;;2.10;;
34497;SDS011;20744;50.938;7.286;2023-08-08T01:46:01;4.03;;;2.33;;
34497;SDS011;20744;50.938;7.286;2023-08-08T01:48:29;7.47;;;2.63;;
34497;SDS011;20744;50.938;7.286;2023-08-08T01:50:57;4.10;;;2.53;;
34497;SDS011;20744;50.938;7.286;2023-08-08T01:53:24;5.82;;;2.38;;
34497;SDS011;20744;50.938;7.286;2023-08-08T01:55:54;6.13;;;2.55;;
34497;SDS011;20744;50.938;7.286;2023-08-08T01:58:22;6.03;;;2.80;;
34497;SDS011;20744;50.938;7.286;2023-08-08T02:00:52;4.53;;;2.40;;
34497;SDS011;20744;50.938;7.286;2023-08-08T02:03:19;5.25;;;2.47;;
34497;SDS011;20744;50.938;7.286;2023-08-08T02:05:47;7.95;;;2.55;;
34497;SDS011;20744;50.938;7.286;2023-08-08T02:08:14;5.28;;;2.33;;
34497;SDS011;20744;50.938;7.286;2023-08-08T02:10:42;8.30;;;2.50;;
34497;SDS011;20744;50.938;7.286;2023-08-08T02:13:09;9.13;;;2.35;;
34497;SDS011;20744;50.938;7.286;2023-08-08T02:15:36;4.15;;;2.22;;
34497;SDS011;20744;50.938;7.286;2023-08-08T02:18:05;10.68;;;2.83;;
34497;SDS011;20744;50.938;7.286;2023-08-08T02:20:37;2.90;;;2.30;;
34497;SDS011;20744;50.938;7.286;2023-08-08T02:23:04;6.43;;;2.35;;
34497;SDS011;20744;50.938;7.286;2023-08-08T02:25:32;8.85;;;2.55;;
34497;SDS011;20744;50.938;7.286;2023-08-08T02:27:59;4.85;;;2.40;;
34497;SDS011;20744;50.938;7.286;2023-08-08T02:30:26;5.10;;;2.08;;
34497;SDS011;20744;50.938;7.286;2023-08-08T02:32:54;7.10;;;2.30;;
34497;SDS011;20744;50.938;7.286;2023-08-08T02:35:22;6.47;;;2.22;;
34497;SDS011;20744;50.938;7.286;2023-08-08T02:37:50;8.30;;;2.53;;
34497;SDS011;20744;50.938;7.286;2023-08-08T02:40:17;4.82;;;2.15;;
34497;SDS011;20744;50.938;7.286;2023-08-08T02:42:48;5.70;;;2.42;;
34497;SDS011;20744;50.938;7.286;2023-08-08T02:45:15;4.93;;;2.35;;
34497;SDS011;20744;50.938;7.286;2023-08-08T02:47:43;5.97;;;2.20;;
34497;SDS011;20744;50.938;7.286;2023-08-08T02:50:13;7.68;;;2.83;;
34497;SDS011;20744;50.938;7.286;2023-08-08T02:52:41;6.70;;;2.47;;
34497;SDS011;20744;50.938;7.286;2023-08-08T02:55:12;6.28;;;2.47;;
34497;SDS011;20744;50.938;7.286;2023-08-08T02:57:39;3.90;;;2.08;;
34497;SDS011;20744;50.938;7.286;2023-08-08T03:00:07;7.32;;;2.40;;
34497;SDS011;20744;50.938;7.286;2023-08-08T03:02:35;6.20;;;2.33;;
34497;SDS011;20744;50.938;7.286;2023-08-08T03:05:02;5.57;;;2.00;;
34497;SDS011;20744;50.938;7.286;2023-08-08T03:07:30;6.22;;;2.20;;
34497;SDS011;20744;50.938;7.286;2023-08-08T03:09:59;6.85;;;2.28;;
34497;SDS011;20744;50.938;7.286;2023-08-08T03:12:26;6.85;;;2.00;;
34497;SDS011;20744;50.938;7.286;2023-08-08T03:14:53;5.80;;;2.15;;
34497;SDS011;20744;50.938;7.286;2023-08-08T03:17:21;4.85;;;2.25;;
34497;SDS011;20744;50.938;7.286;2023-08-08T03:19:49;5.18;;;2.20;;
34497;SDS011;20744;50.938;7.286;2023-08-08T03:22:16;2.60;;;1.63;;
34497;SDS011;20744;50.938;7.286;2023-08-08T03:24:43;6.20;;;2.10;;
34497;SDS011;20744;50.938;7.286;2023-08-08T03:27:12;6.53;;;2.00;;
34497;SDS011;20744;50.938;7.286;2023-08-08T03:29:39;4.47;;;2.10;;
34497;SDS011;20744;50.938;7.286;2023-08-08T03:32:06;6.32;;;2.20;;
34497;SDS011;20744;50.938;7.286;2023-08-08T03:34:34;9.63;;;2.30;;
34497;SDS011;20744;50.938;7.286;2023-08-08T03:37:01;5.32;;;2.47;;
34497;SDS011;20744;50.938;7.286;2023-08-08T03:39:28;5.15;;;2.20;;
34497;SDS011;20744;50.938;7.286;2023-08-08T03:41:56;6.05;;;2.28;;
34497;SDS011;20744;50.938;7.286;2023-08-08T03:44:24;4.65;;;2.25;;
34497;SDS011;20744;50.938;7.286;2023-08-08T03:46:52;6.32;;;2.47;;
34497;SDS011;20744;50.938;7.286;2023-08-08T03:49:19;5.47;;;2.35;;
34497;SDS011;20744;50.938;7.286;2023-08-08T03:51:46;7.88;;;2.45;;
34497;SDS011;20744;50.938;7.286;2023-08-08T03:54:14;8.02;;;2.70;;
34497;SDS011;20744;50.938;7.286;2023-08-08T03:56:41;9.98;;;2.63;;
34497;SDS011;20744;50.938;7.286;2023-08-08T03:59:08;10.18;;;2.90;;
34497;SDS011;20744;50.938;7.286;2023-08-08T04:01:39;9.27;;;2.70;;
34497;SDS011;20744;50.938;7.286;2023-08-08T04:04:06;5.75;;;2.22;;
34497;SDS011;20744;50.938;7.286;2023-08-08T04:06:33;6.07;;;2.95;;
34497;SDS011;20744;50.938;7.286;2023-08-08T04:09:04;4.55;;;2.47;;
34497;SDS011;20744;50.938;7.286;2023-08-08T04:11:34;7.53;;;2.38;;
34497;SDS011;20744;50.938;7.286;2023-08-08T04:14:02;6.63;;;2.42;;
34497;SDS011;20744;50.938;7.286;2023-08-08T04:16:29;4.53;;;2.53;;
34497;SDS011;20744;50.938;7.286;2023-08-08T04:19:03;5.88;;;2.42;;
34497;SDS011;20744;50.938;7.286;2023-08-08T04:21:31;6.18;;;2.22;;
34497;SDS011;20744;50.938;7.286;2023-08-08T04:24:00;6.07;;;2.55;;
34497;SDS011;20744;50.938;7.286;2023-08-08T04:26:27;6.68;;;2.42;;
34497;SDS011;20744;50.938;7.286;2023-08-08T04:28:54;6.95;;;2.90;;
34497;SDS011;20744;50.938;7.286;2023-08-08T04:31:22;5.45;;;2.47;;
34497;SDS011;20744;50.938;7.286;2023-08-08T04:33:50;4.72;;;2.63;;
34497;SDS011;20744;50.938;7.286;2023-08-08T04:36:22;9.55;;;3.10;;
34497;SDS011;20744;50.938;7.286;2023-08-08T04:38:52;5.10;;;2.60;;
34497;SDS011;20744;50.938;7.286;2023-08-08T04:41:19;3.33;;;2.83;;
34497;SDS011;20744;50.938;7.286;2023-08-08T04:43:46;10.18;;;2.90;;
34497;SDS011;20744;50.938;7.286;2023-08-08T04:46:14;6.30;;;2.67;;
34497;SDS011;20744;50.938;7.286;2023-08-08T04:48:41;5.32;;;2.90;;
34497;SDS011;20744;50.938;7.286;2023-08-08T04:51:11;11.85;;;3.05;;
34497;SDS011;20744;50.938;7.286;2023-08-08T04:53:40;8.13;;;2.88;;
34497;SDS011;20744;50.938;7.286;2023-08-08T04:56:07;9.23;;;3.22;;
34497;SDS011;20744;50.938;7.286;2023-08-08T04:58:35;6.32;;;2.83;;
34497;SDS011;20744;50.938;7.286;2023-08-08T05:01:02;5.10;;;3.08;;
34497;SDS011;20744;50.938;7.286;2023-08-08T05:03:32;10.68;;;3.03;;
34497;SDS011;20744;50.938;7.286;2023-08-08T05:05:59;4.10;;;2.88;;
34497;SDS011;20744;50.938;7.286;2023-08-08T05:08:29;9.35;;;3.58;;
34497;SDS011;20744;50.938;7.286;2023-08-08T05:10:58;8.35;;;3.22;;
34497;SDS011;20744;50.938;7.286;2023-08-08T05:13:25;7.72;;;2.85;;
34497;SDS011;20744;50.938;7.286;2023-08-08T05:15:53;6.93;;;3.40;;
34497;SDS011;20744;50.938;7.286;2023-08-08T05:18:20;10.30;;;2.92;;
34497;SDS011;20744;50.938;7.286;2023-08-08T05:20:47;8.35;;;3.00;;
34497;SDS011;20744;50.938;7.286;2023-08-08T05:23:15;10.98;;;3.28;;
34497;SDS011;20744;50.938;7.286;2023-08-08T05:25:42;7.78;;;3.22;;
34497;SDS011;20744;50.938;7.286;2023-08-08T05:28:14;9.35;;;2.80;;
34497;SDS011;20744;50.938;7.286;2023-08-08T05:30:41;9.65;;;3.30;;
34497;SDS011;20744;50.938;7.286;2023-08-08T05:33:09;10.32;;;3.10;;
34497;SDS011;20744;50.938;7.286;2023-08-08T05:35:36;8.35;;;3.13;;
34497;SDS011;20744;50.938;7.286;2023-08-08T05:38:03;4.95;;;2.78;;
34497;SDS011;20744;50.938;7.286;2023-08-08T05:40:30;6.93;;;3.53;;
34497;SDS011;20744;50.938;7.286;2023-08-08T05:43:01;11.75;;;3.33;;
34497;SDS011;20744;50.938;7.286;2023-08-08T05:45:29;8.63;;;2.65;;
34497;SDS011;20744;50.938;7.286;2023-08-08T05:47:57;9.20;;;3.13;;
34497;SDS011;20744;50.938;7.286;2023-08-08T05:50:26;6.05;;;2.88;;
34497;SDS011;20744;50.938;7.286;2023-08-08T05:52:53;6.50;;;2.97;;
34497;SDS011;20744;50.938;7.286;2023-08-08T05:55:20;6.53;;;2.72;;
34497;SDS011;20744;50.938;7.286;2023-08-08T05:57:47;6.72;;;3.22;;
34497;SDS011;20744;50.938;7.286;2023-08-08T06:00:15;7.28;;;2.33;;
34497;SDS011;20744;50.938;7.286;2023-08-08T06:02:44;7.15;;;2.70;;
34497;SDS011;20744;50.938;7.286;2023-08-08T06:05:11;5.90;;;2.55;;
34497;SDS011;20744;50.938;7.286;2023-08-08T06:07:39;8.07;;;2.45;;
34497;SDS011;20744;50.938;7.286;2023-08-08T06:10:07;8.90;;;1.90;;
34497;SDS011;20744;50.938;7.286;2023-08-08T06:12:34;8.38;;;2.33;;
34497;SDS011;20744;50.938;7.286;2023-08-08T06:15:02;5.38;;;2.25;;
34497;SDS011;20744;50.938;7.286;2023-08-08T06:17:30;12.15;;;2.30;;
34497;SDS011;20744;50.938;7.286;2023-08-08T06:19:59;9.68;;;2.35;;
34497;SDS011;20744;50.938;7.286;2023-08-08T06:22:27;5.30;;;2.03;;
34497;SDS011;20744;50.938;7.286;2023-08-08T06:24:55;4.50;;;2.40;;
34497;SDS011;20744;50.938;7.286;2023-08-08T06:27:22;10.02;;;2.53;;
34497;SDS011;20744;50.938;7.286;2023-08-08T06:29:49;8.68;;;2.45;;
34497;SDS011;20744;50.938;7.286;2023-08-08T06:32:17;8.60;;;2.20;;
34497;SDS011;20744;50.938;7.286;2023-08-08T06:34:50;4.40;;;2.40;;
34497;SDS011;20744;50.938;7.286;2023-08-08T06:37:22;7.32;;;2.45;;
34497;SDS011;20744;50.938;7.286;2023-08-08T06:39:49;5.25;;;2.15;;
34497;SDS011;20744;50.938;7.286;2023-08-08T06:42:16;11.15;;;2.20;;
34497;SDS011;20744;50.938;7.286;2023-08-08T06:44:47;4.80;;;2.28;;
34497;SDS011;20744;50.938;7.286;2023-08-08T06:47:14;6.95;;;2.42;;
34497;SDS011;20744;50.938;7.286;2023-08-08T06:49:42;7.70;;;2.28;;
34497;SDS011;20744;50.938;7.286;2023-08-08T06:52:09;9.63;;;2.88;;
34497;SDS011;20744;50.938;7.286;2023-08-08T06:54:38;9.48;;;2.65;;
34497;SDS011;20744;50.938;7.286;2023-08-08T06:57:05;8.45;;;2.72;;
34497;SDS011;20744;50.938;7.286;2023-08-08T06:59:35;11.40;;;2.50;;
34497;SDS011;20744;50.938;7.286;2023-08-08T07:02:15;7.88;;;2.67;;
34497;SDS011;20744;50.938;7.286;2023-08-08T07:04:48;6.00;;;2.42;;
34497;SDS011;20744;50.938;7.286;2023-08-08T07:07:18;6.60;;;2.33;;
34497;SDS011;20744;50.938;7.286;2023-08-08T07:09:46;6.22;;;2.45;;
34497;SDS011;20744;50.938;7.286;2023-08-08T07:12:15;9.00;;;2.92;;
34497;SDS011;20744;50.938;7.286;2023-08-08T07:14:42;7.47;;;2.42;;
34497;SDS011;20744;50.938;7.286;2023-08-08T07:17:10;15.85;;;3.38;;
34497;SDS011;20744;50.938;7.286;2023-08-08T07:19:37;9.95;;;3.20;;
34497;SDS011;20744;50.938;7.286;2023-08-08T07:22:04;7.43;;;2.92;;
34497;SDS011;20744;50.938;7.286;2023-08-08T07:24:38;10.18;;;2.85;;
34497;SDS011;20744;50.938;7.286;2023-08-08T07:27:06;10.13;;;2.92;;
34497;SDS011;20744;50.938;7.286;2023-08-08T07:29:34;7.70;;;2.78;;
34497;SDS011;20744;50.938;7.286;2023-08-08T07:32:02;10.45;;;3.00;;
34497;SDS011;20744;50.938;7.286;2023-08-08T07:34:30;12.68;;;3.22;;
34497;SDS011;20744;50.938;7.286;2023-08-08T07:36:58;5.55;;;2.42;;
34497;SDS011;20744;50.938;7.286;2023-08-08T07:39:25;10.95;;;2.97;;
34497;SDS011;20744;50.938;7.286;2023-08-08T07:41:52;11.25;;;2.90;;
34497;SDS011;20744;50.938;7.286;2023-08-08T07:44:21;10.88;;;3.22;;
34497;SDS011;20744;50.938;7.286;2023-08-08T07:46:48;9.95;;;2.95;;
34497;SDS011;20744;50.938;7.286;2023-08-08T07:49:16;8.65;;;3.20;;
34497;SDS011;20744;50.938;7.286;2023-08-08T07:51:43;17.30;;;3.35;;
34497;SDS011;20744;50.938;7.286;2023-08-08T07:54:11;11.50;;;3.10;;
34497;SDS011;20744;50.938;7.286;2023-08-08T07:56:38;10.30;;;2.97;;
34497;SDS011;20744;50.938;7.286;2023-08-08T07:59:05;13.13;;;3.17;;
34497;SDS011;20744;50.938;7.286;2023-08-08T08:01:35;8.10;;;3.08;;
34497;SDS011;20744;50.938;7.286;2023-08-08T08:04:02;8.15;;;2.72;;
34497;SDS011;20744;50.938;7.286;2023-08-08T08:06:30;10.60;;;2.70;;
34497;SDS011;20744;50.938;7.286;2023-08-08T08:08:59;8.90;;;3.13;;
34497;SDS011;20744;50.938;7.286;2023-08-08T08:11:28;10.32;;;2.60;;
34497;SDS011;20744;50.938;7.286;2023-08-08T08:13:55;10.43;;;2.60;;
34497;SDS011;20744;50.938;7.286;2023-08-08T08:16:30;7.60;;;3.15;;
34497;SDS011;20744;50.938;7.286;2023-08-08T08:18:59;13.55;;;2.92;;
34497;SDS011;20744;50.938;7.286;2023-08-08T08:21:26;13.27;;;2.80;;
34497;SDS011;20744;50.938;7.286;2023-08-08T08:23:54;12.48;;;3.22;;
34497;SDS011;20744;50.938;7.286;2023-08-08T08:26:22;9.40;;;2.80;;
34497;SDS011;20744;50.938;7.286;2023-08-08T08:28:49;9.68;;;2.72;;
34497;SDS011;20744;50.938;7.286;2023-08-08T08:31:17;8.13;;;2.53;;
34497;SDS011;20744;50.938;7.286;2023-08-08T08:33:44;9.50;;;2.42;;
34497;SDS011;20744;50.938;7.286;2023-08-08T08:36:13;8.75;;;2.63;;
34497;SDS011;20744;50.938;7.286;2023-08-08T08:38:40;12.63;;;2.97;;
34497;SDS011;20744;50.938;7.286;2023-08-08T08:41:08;10.73;;;2.40;;
34497;SDS011;20744;50.938;7.286;2023-08-08T08:43:36;11.40;;;2.88;;
34497;SDS011;20744;50.938;7.286;2023-08-08T08:46:03;9.38;;;2.75;;
34497;SDS011;20744;50.938;7.286;2023-08-08T08:48:31;9.38;;;2.83;;
34497;SDS011;20744;50.938;7.286;2023-08-08T08:50:58;11.70;;;3.08;;
34497;SDS011;20744;50.938;7.286;2023-08-08T08:53:30;11.07;;;3.20;;
34497;SDS011;20744;50.938;7.286;2023-08-08T08:56:03;9.57;;;2.78;;
34497;SDS011;20744;50.938;7.286;2023-08-08T08:58:31;9.10;;;2.83;;
34497;SDS011;20744;50.938;7.286;2023-08-08T09:00:58;8.40;;;3.03;;
34497;SDS011;20744;50.938;7.286;2023-08-08T09:03:25;8.38;;;3.45;;
34497;SDS011;20744;50.938;7.286;2023-08-08T09:05:52;10.77;;;2.97;;
34497;SDS011;20744;50.938;7.286;2023-08-08T09:08:20;8.00;;;3.28;;
34497;SDS011;20744;50.938;7.286;2023-08-08T09:10:49;10.93;;;3.72;;
34497;SDS011;20744;50.938;7.286;2023-08-08T09:13:17;9.23;;;3.78;;
34497;SDS011;20744;50.938;7.286;2023-08-08T09:15:48;13.60;;;3.80;;
34497;SDS011;20744;50.938;7.286;2023-08-08T09:18:15;6.47;;;3.45;;
34497;SDS011;20744;50.938;7.286;2023-08-08T09:20:46;12.80;;;3.30;;
34497;SDS011;20744;50.938;7.286;2023-08-08T09:23:14;10.88;;;3.92;;
34497;SDS011;20744;50.938;7.286;2023-08-08T09:25:41;10.68;;;3.65;;
34497;SDS011;20744;50.938;7.286;2023-08-08T09:28:10;7.95;;;3.67;;
34497;SDS011;20744;50.938;7.286;2023-08-08T09:30:37;15.25;;;3.88;;
34497;SDS011;20744;50.938;7.286;2023-08-08T09:33:05;10.15;;;3.53;;
34497;SDS011;20744;50.938;7.286;2023-08-08T09:35:33;10.02;;;3.50;;
34497;SDS011;20744;50.938;7.286;2023-08-08T09:38:00;10.40;;;3.40;;
34497;SDS011;20744;50.938;7.286;2023-08-08T09:40:27;12.75;;;3.30;;
34497;SDS011;20744;50.938;7.286;2023-08-08T09:42:56;6.47;;;2.85;;
34497;SDS011;20744;50.938;7.286;2023-08-08T09:45:25;10.38;;;3.78;;
34497;SDS011;20744;50.938;7.286;2023-08-08T09:47:53;8.23;;;3.13;;
34497;SDS011;20744;50.938;7.286;2023-08-08T09:50:21;7.82;;;2.90;;
34497;SDS011;20744;50.938;7.286;2023-08-08T09:52:48;9.43;;;2.95;;
34497;SDS011;20744;50.938;7.286;2023-08-08T09:55:18;8.50;;;3.20;;
34497;SDS011;20744;50.938;7.286;2023-08-08T09:57:45;8.73;;;3.03;;
34497;SDS011;20744;50.938;7.286;2023-08-08T10:00:13;8.80;;;3.20;;
34497;SDS011;20744;50.938;7.286;2023-08-08T10:02:44;10.43;;;3.13;;
34497;SDS011;20744;50.938;7.286;2023-08-08T10:05:11;7.47;;;3.10;;
34497;SDS011;20744;50.938;7.286;2023-08-08T10:07:39;8.20;;;2.80;;
34497;SDS011;20744;50.938;7.286;2023-08-08T10:10:06;12.50;;;2.60;;
34497;SDS011;20744;50.938;7.286;2023-08-08T10:12:35;7.20;;;2.60;;
34497;SDS011;20744;50.938;7.286;2023-08-08T10:15:03;8.48;;;2.55;;
34497;SDS011;20744;50.938;7.286;2023-08-08T10:17:34;6.95;;;3.03;;
34497;SDS011;20744;50.938;7.286;2023-08-08T10:20:04;9.40;;;2.85;;
34497;SDS011;20744;50.938;7.286;2023-08-08T10:22:36;7.90;;;2.33;;
34497;SDS011;20744;50.938;7.286;2023-08-08T10:25:05;7.25;;;2.50;;
34497;SDS011;20744;50.938;7.286;2023-08-08T10:27:33;6.68;;;2.80;;
34497;SDS011;20744;50.938;7.286;2023-08-08T10:30:01;9.38;;;2.50;;
34497;SDS011;20744;50.938;7.286;2023-08-08T10:32:29;7.20;;;2.42;;
34497;SDS011;20744;50.938;7.286;2023-08-08T10:35:07;8.45;;;2.70;;
34497;SDS011;20744;50.938;7.286;2023-08-08T10:37:36;6.43;;;2.70;;
34497;SDS011;20744;50.938;7.286;2023-08-08T10:40:04;8.73;;;2.13;;
34497;SDS011;20744;50.938;7.286;2023-08-08T10:42:32;6.82;;;2.00;;
34497;SDS011;20744;50.938;7.286;2023-08-08T10:45:00;6.43;;;2.00;;
34497;SDS011;20744;50.938;7.286;2023-08-08T10:47:30;11.98;;;2.53;;
34497;SDS011;20744;50.938;7.286;2023-08-08T10:50:03;9.32;;;2.55;;
34497;SDS011;20744;50.938;7.286;2023-08-08T10:52:33;5.50;;;1.75;;
34497;SDS011;20744;50.938;7.286;2023-08-08T10:55:01;6.32;;;2.42;;
34497;SDS011;20744;50.938;7.286;2023-08-08T10:57:28;9.75;;;2.58;;
34497;SDS011;20744;50.938;7.286;2023-08-08T11:02:40;8.90;;;1.77;;
34497;SDS011;20744;50.938;7.286;2023-08-08T11:05:07;12.82;;;1.95;;
34497;SDS011;20744;50.938;7.286;2023-08-08T11:07:39;5.45;;;1.63;;
34497;SDS011;20744;50.938;7.286;2023-08-08T11:10:06;6.32;;;2.05;;
34497;SDS011;20744;50.938;7.286;2023-08-08T11:12:34;6.07;;;1.85;;
34497;SDS011;20744;50.938;7.286;2023-08-08T11:15:02;5.72;;;1.92;;
34497;SDS011;20744;50.938;7.286;2023-08-08T11:17:29;6.35;;;1.83;;
34497;SDS011;20744;50.938;7.286;2023-08-08T11:19:57;5.75;;;1.80;;
34497;SDS011;20744;50.938;7.286;2023-08-08T11:22:24;6.13;;;1.90;;
34497;SDS011;20744;50.938;7.286;2023-08-08T11:24:53;6.85;;;1.80;;
34497;SDS011;20744;50.938;7.286;2023-08-08T11:27:23;6.95;;;2.13;;
34497;SDS011;20744;50.938;7.286;2023-08-08T11:29:50;4.53;;;1.80;;
34497;SDS011;20744;50.938;7.286;2023-08-08T11:32:20;6.75;;;1.90;;
34497;SDS011;20744;50.938;7.286;2023-08-08T11:34:47;5.97;;;1.63;;
34497;SDS011;20744;50.938;7.286;2023-08-08T11:37:15;5.85;;;1.88;;
34497;SDS011;20744;50.938;7.286;2023-08-08T11:39:42;4.95;;;1.70;;
34497;SDS011;20744;50.938;7.286;2023-08-08T11:42:11;7.78;;;1.80;;
34497;SDS011;20744;50.938;7.286;2023-08-08T11:44:39;9.00;;;1.92;;
34497;SDS011;20744;50.938;7.286;2023-08-08T11:47:07;6.47;;;1.60;;
34497;SDS011;20744;50.938;7.286;2023-08-08T11:49:39;6.78;;;1.67;;
34497;SDS011;20744;50.938;7.286;2023-08-08T11:52:07;6.03;;;2.15;;
34497;SDS011;20744;50.938;7.286;2023-08-08T11:54:36;6.60;;;2.17;;
34497;SDS011;20744;50.938;7.286;2023-08-08T11:57:04;10.27;;;1.83;;
34497;SDS011;20744;50.938;7.286;2023-08-08T11:59:32;5.18;;;1.77;;
34497;SDS011;20744;50.938;7.286;2023-08-08T12:02:00;6.72;;;1.80;;
34497;SDS011;20744;50.938;7.286;2023-08-08T12:04:27;9.13;;;1.90;;
34497;SDS011;20744;50.938;7.286;2023-08-08T12:07:00;7.60;;;1.90;;
34497;SDS011;20744;50.938;7.286;2023-08-08T12:09:28;6.80;;;2.10;;
34497;SDS011;20744;50.938;7.286;2023-08-08T12:11:58;5.97;;;1.70;;
34497;SDS011;20744;50.938;7.286;2023-08-08T12:14:26;4.75;;;1.65;;
34497;SDS011;20744;50.938;7.286;2023-08-08T12:16:55;4.82;;;1.50;;
34497;SDS011;20744;50.938;7.286;2023-08-08T12:19:23;6.88;;;2.08;;
34497;SDS011;20744;50.938;7.286;2023-08-08T12:21:50;5.88;;;1.83;;
34497;SDS011;20744;50.938;7.286;2023-08-08T12:24:18;5.10;;;1.63;;
34497;SDS011;20744;50.938;7.286;2023-08-08T12:26:45;6.53;;;1.70;;
34497;SDS011;20744;50.938;7.286;2023-08-08T12:29:12;6.05;;;1.60;;
34497;SDS011;20744;50.938;7.286;2023-08-08T12:31:40;6.30;;;1.60;;
34497;SDS011;20744;50.938;7.286;2023-08-08T12:34:08;9.13;;;1.67;;
34497;SDS011;20744;50.938;7.286;2023-08-08T12:36:36;7.88;;;1.73;;
34497;SDS011;20744;50.938;7.286;2023-08-08T12:39:04;5.20;;;1.70;;
34497;SDS011;20744;50.938;7.286;2023-08-08T12:41:32;3.72;;;1.67;;
34497;SDS011;20744;50.938;7.286;2023-08-08T12:44:00;4.90;;;1.77;;
34497;SDS011;20744;50.938;7.286;2023-08-08T12:46:28;5.60;;;1.55;;
34497;SDS011;20744;50.938;7.286;2023-08-08T12:48:55;8.50;;;1.75;;
34497;SDS011;20744;50.938;7.286;2023-08-08T12:51:25;5.43;;;1.73;;
34497;SDS011;20744;50.938;7.286;2023-08-08T12:53:52;8.25;;;1.33;;
34497;SDS011;20744;50.938;7.286;2023-08-08T12:56:21;5.00;;;1.80;;
34497;SDS011;20744;50.938;7.286;2023-08-08T12:58:53;4.25;;;1.48;;
34497;SDS011;20744;50.938;7.286;2023-08-08T13:01:20;7.80;;;1.30;;
34497;SDS011;20744;50.938;7.286;2023-08-08T13:03:47;6.88;;;1.58;;
34497;SDS011;20744;50.938;7.286;2023-08-08T13:06:16;4.72;;;1.55;;
34497;SDS011;20744;50.938;7.286;2023-08-08T13:08:45;5.40;;;1.50;;
34497;SDS011;20744;50.938;7.286;2023-08-08T13:11:12;3.90;;;1.67;;
34497;SDS011;20744;50.938;7.286;2023-08-08T13:13:42;6.47;;;1.40;;
34497;SDS011;20744;50.938;7.286;2023-08-08T13:16:09;5.20;;;1.45;;
34497;SDS011;20744;50.938;7.286;2023-08-08T13:18:36;7.28;;;1.75;;
34497;SDS011;20744;50.938;7.286;2023-08-08T13:21:03;6.82;;;1.60;;
34497;SDS011;20744;50.938;7.286;2023-08-08T13:23:31;5.15;;;1.90;;
34497;SDS011;20744;50.938;7.286;2023-08-08T13:26:00;6.65;;;1.83;;
34497;SDS011;20744;50.938;7.286;2023-08-08T13:28:28;9.65;;;2.80;;
34497;SDS011;20744;50.938;7.286;2023-08-08T13:30:58;7.00;;;2.17;;
34497;SDS011;20744;50.938;7.286;2023-08-08T13:33:26;6.95;;;2.38;;
34497;SDS011;20744;50.938;7.286;2023-08-08T13:35:53;6.53;;;2.50;;
34497;SDS011;20744;50.938;7.286;2023-08-08T13:38:20;9.50;;;2.40;;
34497;SDS011;20744;50.938;7.286;2023-08-08T13:40:52;12.82;;;2.88;;
34497;SDS011;20744;50.938;7.286;2023-08-08T13:43:21;14.75;;;3.03;;
34497;SDS011;20744;50.938;7.286;2023-08-08T13:45:50;12.90;;;2.72;;
34497;SDS011;20744;50.938;7.286;2023-08-08T13:48:17;9.00;;;2.60;;
34497;SDS011;20744;50.938;7.286;2023-08-08T13:50:45;11.10;;;3.00;;
34497;SDS011;20744;50.938;7.286;2023-08-08T13:53:15;8.70;;;2.42;;
34497;SDS011;20744;50.938;7.286;2023-08-08T13:55:42;8.10;;;2.50;;
34497;SDS011;20744;50.938;7.286;2023-08-08T13:58:10;10.38;;;2.67;;
34497;SDS011;20744;50.938;7.286;2023-08-08T14:00:39;8.60;;;2.10;;
34497;SDS011;20744;50.938;7.286;2023-08-08T14:03:06;7.20;;;2.58;;
34497;SDS011;20744;50.938;7.286;2023-08-08T14:05:33;6.60;;;2.20;;
34497;SDS011;20744;50.938;7.286;2023-08-08T14:08:02;7.35;;;1.98;;
34497;SDS011;20744;50.938;7.286;2023-08-08T14:10:30;5.00;;;1.90;;
34497;SDS011;20744;50.938;7.286;2023-08-08T14:12:57;6.03;;;1.55;;
34497;SDS011;20744;50.938;7.286;2023-08-08T14:15:24;6.53;;;2.00;;
34497;SDS011;20744;50.938;7.286;2023-08-08T14:17:53;7.68;;;1.92;;
34497;SDS011;20744;50.938;7.286;2023-08-08T14:20:21;5.15;;;1.90;;
34497;SDS011;20744;50.938;7.286;2023-08-08T14:22:48;5.00;;;1.45;;
34497;SDS011;20744;50.938;7.286;2023-08-08T14:25:16;6.05;;;1.73;;
34497;SDS011;20744;50.938;7.286;2023-08-08T14:27:43;6.40;;;1.55;;
34497;SDS011;20744;50.938;7.286;2023-08-08T14:30:10;10.65;;;1.77;;
34497;SDS011;20744;50.938;7.286;2023-08-08T14:32:40;5.82;;;1.50;;
34497;SDS011;20744;50.938;7.286;2023-08-08T14:35:09;8.25;;;1.58;;
34497;SDS011;20744;50.938;7.286;2023-08-08T14:37:38;9.55;;;1.80;;
34497;SDS011;20744;50.938;7.286;2023-08-08T14:40:08;6.88;;;1.75;;
34497;SDS011;20744;50.938;7.286;2023-08-08T14:42:36;5.43;;;1.50;;
34497;SDS011;20744;50.938;7.286;2023-08-08T14:45:03;4.85;;;1.55;;
34497;SDS011;20744;50.938;7.286;2023-08-08T14:47:31;6.60;;;1.70;;
34497;SDS011;20744;50.938;7.286;2023-08-08T14:49:58;6.30;;;1.70;;
34497;SDS011;20744;50.938;7.286;2023-08-08T14:52:27;7.15;;;1.67;;
34497;SDS011;20744;50.938;7.286;2023-08-08T14:54:54;5.38;;;1.60;;